sensor_id;sensor_type;location;lat;lon;timestamp;pressure;altitude;pressure_sealevel;temperature;humidity
5350;BME280;2697;42.144;24.794;2023-07-13T00:01:59;158932.16;;;24.56;100.00
5350;BME280;2697;42.144;24.794;2023-07-13T00:04:25;158930.81;;;24.56;100.00
5350;BME280;2697;42.144;24.794;2023-07-13T00:06:51;158896.25;;;24.42;100.00
5350;BME280;2697;42.144;24.794;2023-07-13T00:09:17;158902.88;;;24.45;100.00
5350;BME280;2697;42.144;24.794;2023-07-13T00:11:44;158886.97;;;24.39;100.00
5350;BME280;2697;42.144;24.794;2023-07-13T00:14:10;158871.00;;;24.33;100.00
5350;BME280;2697;42.144;24.794;2023-07-13T00:16:37;158815.09;;;24.11;100.00
5350;BME280;2697;42.144;24.794;2023-07-13T00:19:04;158924.19;;;24.53;100.00
5350;BME280;2697;42.144;24.794;2023-07-13T00:21:30;158896.25;;;24.42;100.00
5350;BME280;2697;42.144;24.794;2023-07-13T00:23:55;158857.63;;;24.28;100.00
5350;BME280;2697;42.144;24.794;2023-07-13T00:26:21;158847.00;;;24.24;100.00
5350;BME280;2697;42.144;24.794;2023-07-13T00:28:47;158868.34;;;24.32;100.00
5350;BME280;2697;42.144;24.794;2023-07-13T00:31:13;158852.31;;;24.26;100.00
5350;BME280;2697;42.144;24.794;2023-07-13T00:33:40;158841.69;;;24.22;100.00
5350;BME280;2697;42.144;24.794;2023-07-13T00:36:05;158857.63;;;24.28;100.00
5350;BME280;2697;42.144;24.794;2023-07-13T00:38:31;158852.31;;;24.26;100.00
5350;BME280;2697;42.144;24.794;2023-07-13T00:40:57;158850.97;;;24.25;100.00
5350;BME280;2697;42.144;24.794;2023-07-13T00:43:24;158878.94;;;24.36;100.00
5350;BME280;2697;42.144;24.794;2023-07-13T00:48:21;158945.47;;;24.61;100.00
5350;BME280;2697;42.144;24.794;2023-07-13T00:50:49;158912.25;;;24.49;100.00
5350;BME280;2697;42.144;24.794;2023-07-13T00:53:17;158886.97;;;24.39;100.00
5350;BME280;2697;42.144;24.794;2023-07-13T00:55:43;158823.06;;;24.14;100.00
5350;BME280;2697;42.144;24.794;2023-07-13T00:58:08;158783.16;;;23.99;100.00
5350;BME280;2697;42.144;24.794;2023-07-13T01:00:38;158821.72;;;24.14;100.00
5350;BME280;2697;42.144;24.794;2023-07-13T01:03:04;158765.91;;;23.93;100.00
5350;BME280;2697;42.144;24.794;2023-07-13T01:05:32;158719.34;;;23.75;100.00
5350;BME280;2697;42.144;24.794;2023-07-13T01:07:59;158752.56;;;23.87;100.00
5350;BME280;2697;42.144;24.794;2023-07-13T01:10:25;158749.94;;;23.86;100.00
5350;BME280;2697;42.144;24.794;2023-07-13T01:13:11;158727.31;;;23.78;100.00
5350;BME280;2697;42.144;24.794;2023-07-13T01:15:41;158708.69;;;23.71;100.00
5350;BME280;2697;42.144;24.794;2023-07-13T01:18:10;158724.66;;;23.77;100.00
5350;BME280;2697;42.144;24.794;2023-07-13T01:20:36;158687.41;;;23.63;100.00
5350;BME280;2697;42.144;24.794;2023-07-13T01:23:05;158659.44;;;23.52;100.00
5350;BME280;2697;42.144;24.794;2023-07-13T01:25:31;158655.47;;;23.50;100.00
5350;BME280;2697;42.144;24.794;2023-07-13T01:27:57;158660.78;;;23.52;100.00
5350;BME280;2697;42.144;24.794;2023-07-13T01:30:22;158656.81;;;23.51;100.00
5350;BME280;2697;42.144;24.794;2023-07-13T01:32:48;158655.47;;;23.50;100.00
5350;BME280;2697;42.144;24.794;2023-07-13T01:35:13;158679.44;;;23.59;100.00
5350;BME280;2697;42.144;24.794;2023-07-13T01:37:38;158682.09;;;23.60;100.00
5350;BME280;2697;42.144;24.794;2023-07-13T01:40:04;158668.78;;;23.55;100.00
5350;BME280;2697;42.144;24.794;2023-07-13T01:42:30;158640.84;;;23.45;100.00
5350;BME280;2697;42.144;24.794;2023-07-13T01:44:55;158634.19;;;23.42;100.00
5350;BME280;2697;42.144;24.794;2023-07-13T01:47:22;158631.53;;;23.41;100.00
5350;BME280;2697;42.144;24.794;2023-07-13T01:49:48;158670.13;;;23.56;100.00
5350;BME280;2697;42.144;24.794;2023-07-13T01:52:15;158692.78;;;23.65;100.00
5350;BME280;2697;42.144;24.794;2023-07-13T01:54:40;158695.41;;;23.66;100.00
5350;BME280;2697;42.144;24.794;2023-07-13T01:57:06;158733.94;;;23.80;100.00
5350;BME280;2697;42.144;24.794;2023-07-13T01:59:31;158809.75;;;24.09;100.00
5350;BME280;2697;42.144;24.794;2023-07-13T02:01:58;158788.50;;;24.01;100.00
5350;BME280;2697;42.144;24.794;2023-07-13T02:04:24;158761.88;;;23.91;100.00
5350;BME280;2697;42.144;24.794;2023-07-13T02:06:49;158735.28;;;23.81;100.00
5350;BME280;2697;42.144;24.794;2023-07-13T02:09:14;158698.06;;;23.67;100.00
5350;BME280;2697;42.144;24.794;2023-07-13T02:11:40;158691.44;;;23.64;100.00
5350;BME280;2697;42.144;24.794;2023-07-13T02:14:05;158683.44;;;23.61;100.00
5350;BME280;2697;42.144;24.794;2023-07-13T02:16:31;158678.13;;;23.59;100.00
5350;BME280;2697;42.144;24.794;2023-07-13T02:18:56;158687.41;;;23.63;100.00
5350;BME280;2697;42.144;24.794;2023-07-13T02:21:23;158700.72;;;23.68;100.00
5350;BME280;2697;42.144;24.794;2023-07-13T02:23:49;158708.69;;;23.71;100.00
5350;BME280;2697;42.144;24.794;2023-07-13T02:26:15;158711.34;;;23.72;100.00
5350;BME280;2697;42.144;24.794;2023-07-13T02:28:41;158722.00;;;23.76;100.00
5350;BME280;2697;42.144;24.794;2023-07-13T02:31:12;158711.34;;;23.72;100.00
5350;BME280;2697;42.144;24.794;2023-07-13T02:33:38;158700.72;;;23.68;100.00
5350;BME280;2697;42.144;24.794;2023-07-13T02:36:04;158690.06;;;23.64;100.00
5350;BME280;2697;42.144;24.794;2023-07-13T02:38:31;158688.75;;;23.63;100.00
5350;BME280;2697;42.144;24.794;2023-07-13T02:40:59;158675.41;;;23.58;100.00
5350;BME280;2697;42.144;24.794;2023-07-13T02:43:24;158679.44;;;23.59;100.00
5350;BME280;2697;42.144;24.794;2023-07-13T02:45:50;158654.16;;;23.50;100.00
5350;BME280;2697;42.144;24.794;2023-07-13T02:48:15;158646.19;;;23.47;100.00
5350;BME280;2697;42.144;24.794;2023-07-13T02:50:40;158650.16;;;23.48;100.00
5350;BME280;2697;42.144;24.794;2023-07-13T02:53:06;158630.22;;;23.41;100.00
5350;BME280;2697;42.144;24.794;2023-07-13T02:55:31;158578.38;;;23.21;100.00
5350;BME280;2697;42.144;24.794;2023-07-13T02:57:56;158570.44;;;23.18;100.00
5350;BME280;2697;42.144;24.794;2023-07-13T03:00:22;158549.16;;;23.10;100.00
5350;BME280;2697;42.144;24.794;2023-07-13T03:02:48;158537.19;;;23.05;100.00
5350;BME280;2697;42.144;24.794;2023-07-13T03:05:15;158541.16;;;23.07;100.00
5350;BME280;2697;42.144;24.794;2023-07-13T03:07:41;158559.78;;;23.14;100.00
5350;BME280;2697;42.144;24.794;2023-07-13T03:10:07;158570.44;;;23.18;100.00
5350;BME280;2697;42.144;24.794;2023-07-13T03:12:33;158583.69;;;23.23;100.00
5350;BME280;2697;42.144;24.794;2023-07-13T03:14:58;158594.34;;;23.27;100.00
5350;BME280;2697;42.144;24.794;2023-07-13T03:17:24;158599.66;;;23.29;100.00
5350;BME280;2697;42.144;24.794;2023-07-13T03:19:49;158646.19;;;23.47;100.00
5350;BME280;2697;42.144;24.794;2023-07-13T03:22:17;158720.69;;;23.75;100.00
5350;BME280;2697;42.144;24.794;2023-07-13T03:24:42;158789.84;;;24.02;100.00
5350;BME280;2697;42.144;24.794;2023-07-13T03:27:08;158876.28;;;24.35;100.00
5350;BME280;2697;42.144;24.794;2023-07-13T03:29:33;158962.78;;;24.68;100.00
5350;BME280;2697;42.144;24.794;2023-07-13T03:31:59;159070.59;;;25.09;100.00
5350;BME280;2697;42.144;24.794;2023-07-13T03:34:24;159190.38;;;25.55;100.00
5350;BME280;2697;42.144;24.794;2023-07-13T03:36:50;159279.63;;;25.89;100.00
5350;BME280;2697;42.144;24.794;2023-07-13T03:39:15;159394.09;;;26.33;100.00
5350;BME280;2697;42.144;24.794;2023-07-13T03:41:41;159522.06;;;26.82;100.00
5350;BME280;2697;42.144;24.794;2023-07-13T03:44:07;159627.34;;;27.22;97.38
5350;BME280;2697;42.144;24.794;2023-07-13T03:46:32;159768.69;;;27.76;92.02
5350;BME280;2697;42.144;24.794;2023-07-13T03:48:58;159846.00;;;28.05;88.19
5350;BME280;2697;42.144;24.794;2023-07-13T03:51:24;159887.34;;;28.21;87.56
5350;BME280;2697;42.144;24.794;2023-07-13T03:53:49;159798.00;;;27.87;88.42
5350;BME280;2697;42.144;24.794;2023-07-13T03:56:17;159887.34;;;28.21;87.87
5350;BME280;2697;42.144;24.794;2023-07-13T03:58:45;160024.69;;;28.74;82.24
5350;BME280;2697;42.144;24.794;2023-07-13T04:01:12;159859.28;;;28.10;86.59
5350;BME280;2697;42.144;24.794;2023-07-13T04:03:38;159619.38;;;27.19;95.45
5350;BME280;2697;42.144;24.794;2023-07-13T04:06:07;159578.06;;;27.03;98.68
5350;BME280;2697;42.144;24.794;2023-07-13T04:08:35;159536.69;;;26.87;100.00
5350;BME280;2697;42.144;24.794;2023-07-13T04:11:01;159411.47;;;26.39;100.00
5350;BME280;2697;42.144;24.794;2023-07-13T04:13:27;159571.34;;;27.01;100.00
5350;BME280;2697;42.144;24.794;2023-07-13T04:15:53;159523.38;;;26.82;100.00
5350;BME280;2697;42.144;24.794;2023-07-13T04:18:20;159443.44;;;26.52;100.00
5350;BME280;2697;42.144;24.794;2023-07-13T04:20:47;159661.97;;;27.35;99.28
5350;BME280;2697;42.144;24.794;2023-07-13T04:23:12;159732.63;;;27.62;97.20
5350;BME280;2697;42.144;24.794;2023-07-13T04:25:38;159728.63;;;27.61;98.09
5350;BME280;2697;42.144;24.794;2023-07-13T04:28:04;159895.31;;;28.24;91.55
5350;BME280;2697;42.144;24.794;2023-07-13T04:30:31;159700.63;;;27.50;96.25
5350;BME280;2697;42.144;24.794;2023-07-13T04:32:56;159932.66;;;28.38;92.14
5350;BME280;2697;42.144;24.794;2023-07-13T04:35:22;160176.88;;;29.32;86.55
5350;BME280;2697;42.144;24.794;2023-07-13T04:37:50;159948.69;;;28.45;89.91
5350;BME280;2697;42.144;24.794;2023-07-13T04:40:17;159958.06;;;28.48;90.20
5350;BME280;2697;42.144;24.794;2023-07-13T04:42:44;160255.63;;;29.62;83.64
5350;BME280;2697;42.144;24.794;2023-07-13T04:45:10;160275.66;;;29.69;81.72
5350;BME280;2697;42.144;24.794;2023-07-13T04:47:35;160309.00;;;29.82;80.45
5350;BME280;2697;42.144;24.794;2023-07-13T04:50:01;160638.84;;;31.08;73.72
5350;BME280;2697;42.144;24.794;2023-07-13T04:52:26;160785.84;;;31.64;70.63
5350;BME280;2697;42.144;24.794;2023-07-13T04:54:52;160935.59;;;32.21;68.87
5350;BME280;2697;42.144;24.794;2023-07-13T04:57:17;160732.41;;;31.43;70.19
5350;BME280;2697;42.144;24.794;2023-07-13T04:59:43;160503.94;;;30.56;73.41
5350;BME280;2697;42.144;24.794;2023-07-13T05:02:08;160622.84;;;31.02;72.10
5350;BME280;2697;42.144;24.794;2023-07-13T05:04:33;160677.66;;;31.23;71.52
5350;BME280;2697;42.144;24.794;2023-07-13T05:06:59;160736.41;;;31.45;70.72
5350;BME280;2697;42.144;24.794;2023-07-13T05:09:24;160727.09;;;31.41;70.31
5350;BME280;2697;42.144;24.794;2023-07-13T05:11:50;160548.06;;;30.73;72.45
5350;BME280;2697;42.144;24.794;2023-07-13T05:14:15;160831.34;;;31.81;69.15
5350;BME280;2697;42.144;24.794;2023-07-13T05:16:41;161010.50;;;32.49;65.89
5350;BME280;2697;42.144;24.794;2023-07-13T05:19:08;161259.28;;;33.44;62.31
5350;BME280;2697;42.144;24.794;2023-07-13T05:21:33;160888.81;;;32.03;65.95
5350;BME280;2697;42.144;24.794;2023-07-13T05:23:59;161014.50;;;32.51;64.24
5350;BME280;2697;42.144;24.794;2023-07-13T05:26:24;161029.19;;;32.56;64.08
5350;BME280;2697;42.144;24.794;2023-07-13T05:28:50;160974.38;;;32.36;65.38
5350;BME280;2697;42.144;24.794;2023-07-13T05:31:15;160919.53;;;32.15;65.97
5350;BME280;2697;42.144;24.794;2023-07-13T05:33:40;160800.56;;;31.69;67.87
5350;BME280;2697;42.144;24.794;2023-07-13T05:36:06;160956.94;;;32.29;66.72
5350;BME280;2697;42.144;24.794;2023-07-13T05:38:32;161075.97;;;32.74;61.88
5350;BME280;2697;42.144;24.794;2023-07-13T05:40:58;161248.56;;;33.40;58.16
5350;BME280;2697;42.144;24.794;2023-07-13T05:43:24;161923.34;;;35.96;49.72
5350;BME280;2697;42.144;24.794;2023-07-13T05:45:52;162140.41;;;36.79;46.39
5350;BME280;2697;42.144;24.794;2023-07-13T05:48:18;162375.00;;;37.68;43.22
5350;BME280;2697;42.144;24.794;2023-07-13T05:50:43;162448.78;;;37.96;41.76
5350;BME280;2697;42.144;24.794;2023-07-13T05:53:08;162438.09;;;37.92;41.69
5350;BME280;2697;42.144;24.794;2023-07-13T05:55:34;162282.56;;;37.33;40.70
5350;BME280;2697;42.144;24.794;2023-07-13T05:58:00;162289.25;;;37.35;39.59
5350;BME280;2697;42.144;24.794;2023-07-13T06:00:26;162377.69;;;37.69;39.81
5350;BME280;2697;42.144;24.794;2023-07-13T06:02:52;162306.69;;;37.42;40.11
5350;BME280;2697;42.144;24.794;2023-07-13T06:05:18;162231.59;;;37.14;40.56
5350;BME280;2697;42.144;24.794;2023-07-13T06:07:43;162312.03;;;37.44;40.11
5350;BME280;2697;42.144;24.794;2023-07-13T06:10:09;162345.53;;;37.57;40.11
5350;BME280;2697;42.144;24.794;2023-07-13T06:12:35;162298.63;;;37.39;40.40
5350;BME280;2697;42.144;24.794;2023-07-13T06:15:00;162321.41;;;37.48;39.78
5350;BME280;2697;42.144;24.794;2023-07-13T06:17:25;162556.13;;;38.37;37.77
5350;BME280;2697;42.144;24.794;2023-07-13T06:19:51;162255.66;;;37.23;39.65
5350;BME280;2697;42.144;24.794;2023-07-13T06:22:16;162403.25;;;37.79;38.44
5350;BME280;2697;42.144;24.794;2023-07-13T06:24:42;162372.34;;;37.67;38.64
5350;BME280;2697;42.144;24.794;2023-07-13T06:27:07;162362.97;;;37.63;39.68
5350;BME280;2697;42.144;24.794;2023-07-13T06:29:32;162405.94;;;37.80;38.46
5350;BME280;2697;42.144;24.794;2023-07-13T06:31:58;162312.03;;;37.44;39.04
5350;BME280;2697;42.144;24.794;2023-07-13T06:34:23;162317.38;;;37.46;38.89
5350;BME280;2697;42.144;24.794;2023-07-13T06:36:49;162411.28;;;37.82;37.38
5350;BME280;2697;42.144;24.794;2023-07-13T06:39:14;162507.81;;;38.18;36.60
5350;BME280;2697;42.144;24.794;2023-07-13T06:41:40;162514.50;;;38.21;36.85
5350;BME280;2697;42.144;24.794;2023-07-13T06:44:05;162628.53;;;38.64;36.44
5350;BME280;2697;42.144;24.794;2023-07-13T06:46:31;162695.63;;;38.90;35.04
5350;BME280;2697;42.144;24.794;2023-07-13T06:48:57;162972.13;;;39.95;34.29
5350;BME280;2697;42.144;24.794;2023-07-13T06:51:22;162910.38;;;39.71;34.58
5350;BME280;2697;42.144;24.794;2023-07-13T06:53:47;162671.47;;;38.81;35.20
5350;BME280;2697;42.144;24.794;2023-07-13T06:56:13;162743.91;;;39.08;35.56
5350;BME280;2697;42.144;24.794;2023-07-13T06:58:38;162752.00;;;39.11;34.91
5350;BME280;2697;42.144;24.794;2023-07-13T07:01:04;162498.38;;;38.15;36.29
5350;BME280;2697;42.144;24.794;2023-07-13T07:03:30;162739.91;;;39.06;35.50
5350;BME280;2697;42.144;24.794;2023-07-13T07:06:16;162815.06;;;39.35;35.01
5350;BME280;2697;42.144;24.794;2023-07-13T07:08:42;162800.34;;;39.29;34.88
5350;BME280;2697;42.144;24.794;2023-07-13T07:11:11;163208.44;;;40.84;32.83
5350;BME280;2697;42.144;24.794;2023-07-13T07:13:37;163129.25;;;40.54;32.20
5350;BME280;2697;42.144;24.794;2023-07-13T07:16:03;163240.75;;;40.96;31.88
5350;BME280;2697;42.144;24.794;2023-07-13T07:18:28;163396.53;;;41.55;31.02
5350;BME280;2697;42.144;24.794;2023-07-13T07:20:54;163407.25;;;41.60;30.89
5350;BME280;2697;42.144;24.794;2023-07-13T07:23:19;163384.44;;;41.51;30.38
5350;BME280;2697;42.144;24.794;2023-07-13T07:25:45;162503.78;;;38.17;34.88
5350;BME280;2697;42.144;24.794;2023-07-13T07:28:11;162368.31;;;37.65;36.97
5350;BME280;2697;42.144;24.794;2023-07-13T07:30:36;162076.09;;;36.54;38.25
5350;BME280;2697;42.144;24.794;2023-07-13T07:33:03;162316.06;;;37.46;36.88
5350;BME280;2697;42.144;24.794;2023-07-13T07:35:28;162882.22;;;39.60;34.46
5350;BME280;2697;42.144;24.794;2023-07-13T07:37:54;163072.84;;;40.33;33.08
5350;BME280;2697;42.144;24.794;2023-07-13T07:40:19;163150.72;;;40.62;31.92
5350;BME280;2697;42.144;24.794;2023-07-13T07:42:44;162777.53;;;39.21;33.65
5350;BME280;2697;42.144;24.794;2023-07-13T07:45:10;163154.75;;;40.64;32.40
5350;BME280;2697;42.144;24.794;2023-07-13T07:47:37;163461.06;;;41.80;30.47
5350;BME280;2697;42.144;24.794;2023-07-13T07:50:02;163340.16;;;41.34;32.01
5350;BME280;2697;42.144;24.794;2023-07-13T07:52:27;162811.06;;;39.33;33.80
5350;BME280;2697;42.144;24.794;2023-07-13T07:54:53;163178.91;;;40.73;33.02
5350;BME280;2697;42.144;24.794;2023-07-13T07:57:18;163216.56;;;40.87;31.90
5350;BME280;2697;42.144;24.794;2023-07-13T07:59:44;163388.50;;;41.52;31.54
5350;BME280;2697;42.144;24.794;2023-07-13T08:02:10;162996.34;;;40.04;32.33
5350;BME280;2697;42.144;24.794;2023-07-13T08:04:35;162680.91;;;38.84;34.70
5350;BME280;2697;42.144;24.794;2023-07-13T08:07:01;162931.84;;;39.79;33.14
5350;BME280;2697;42.144;24.794;2023-07-13T08:09:28;162911.72;;;39.72;32.95
5350;BME280;2697;42.144;24.794;2023-07-13T08:11:54;162864.69;;;39.54;33.56
5350;BME280;2697;42.144;24.794;2023-07-13T08:14:20;163154.75;;;40.64;31.45
5350;BME280;2697;42.144;24.794;2023-07-13T08:16:46;162770.78;;;39.18;34.28
5350;BME280;2697;42.144;24.794;2023-07-13T08:19:11;162939.88;;;39.82;33.48
5350;BME280;2697;42.144;24.794;2023-07-13T08:21:37;162867.38;;;39.55;33.37
5350;BME280;2697;42.144;24.794;2023-07-13T08:24:02;162841.88;;;39.45;33.66
5350;BME280;2697;42.144;24.794;2023-07-13T08:26:28;162660.78;;;38.76;34.22
5350;BME280;2697;42.144;24.794;2023-07-13T08:28:53;162658.09;;;38.75;34.77
5350;BME280;2697;42.144;24.794;2023-07-13T08:31:19;162593.66;;;38.51;34.75
5350;BME280;2697;42.144;24.794;2023-07-13T08:33:44;162344.19;;;37.56;35.24
5350;BME280;2697;42.144;24.794;2023-07-13T08:36:10;162236.94;;;37.16;35.94
5350;BME280;2697;42.144;24.794;2023-07-13T08:38:36;162270.44;;;37.28;35.96
5350;BME280;2697;42.144;24.794;2023-07-13T08:41:11;162211.47;;;37.06;36.40
5350;BME280;2697;42.144;24.794;2023-07-13T08:43:37;162132.34;;;36.76;37.73
5350;BME280;2697;42.144;24.794;2023-07-13T08:48:56;162184.69;;;36.96;36.91
5350;BME280;2697;42.144;24.794;2023-07-13T08:54:04;162132.34;;;36.76;37.55
5350;BME280;2697;42.144;24.794;2023-07-13T08:56:33;162167.25;;;36.89;37.83
5350;BME280;2697;42.144;24.794;2023-07-13T08:59:03;162053.31;;;36.46;38.11
5350;BME280;2697;42.144;24.794;2023-07-13T09:01:52;162062.72;;;36.49;38.28
5350;BME280;2697;42.144;24.794;2023-07-13T09:04:27;162064.06;;;36.50;38.16
5350;BME280;2697;42.144;24.794;2023-07-13T09:12:08;162165.91;;;36.89;38.17
5350;BME280;2697;42.144;24.794;2023-07-13T09:14:43;162151.16;;;36.83;37.57
5350;BME280;2697;42.144;24.794;2023-07-13T09:17:45;162127.00;;;36.74;37.89
5350;BME280;2697;42.144;24.794;2023-07-13T09:20:59;162167.25;;;36.89;36.34
5350;BME280;2697;42.144;24.794;2023-07-13T09:23:09;162171.25;;;36.91;36.38
5350;BME280;2697;42.144;24.794;2023-07-13T09:25:37;162277.16;;;37.31;34.99
5350;BME280;2697;42.144;24.794;2023-07-13T09:28:18;162232.94;;;37.14;34.50
5350;BME280;2697;42.144;24.794;2023-07-13T09:31:10;162060.03;;;36.48;36.15
5350;BME280;2697;42.144;24.794;2023-07-13T09:33:38;162220.84;;;37.09;35.90
5350;BME280;2697;42.144;24.794;2023-07-13T09:39:14;162250.31;;;37.21;37.77
5350;BME280;2697;42.144;24.794;2023-07-13T09:44:18;162400.53;;;37.78;36.83
5350;BME280;2697;42.144;24.794;2023-07-13T09:46:47;162412.63;;;37.82;36.39
5350;BME280;2697;42.144;24.794;2023-07-13T09:49:17;162330.81;;;37.51;36.24
5350;BME280;2697;42.144;24.794;2023-07-13T09:51:44;162124.31;;;36.73;36.62
5350;BME280;2697;42.144;24.794;2023-07-13T09:54:24;162277.16;;;37.31;36.25
5350;BME280;2697;42.144;24.794;2023-07-13T09:56:57;162358.97;;;37.62;36.40
5350;BME280;2697;42.144;24.794;2023-07-13T09:59:27;162167.25;;;36.89;37.06
5350;BME280;2697;42.144;24.794;2023-07-13T10:01:53;162337.50;;;37.54;36.92
5350;BME280;2697;42.144;24.794;2023-07-13T10:04:22;162459.53;;;38.00;38.39
5350;BME280;2697;42.144;24.794;2023-07-13T10:06:47;162365.66;;;37.64;38.04
5350;BME280;2697;42.144;24.794;2023-07-13T10:09:16;162333.50;;;37.52;37.33
5350;BME280;2697;42.144;24.794;2023-07-13T10:11:42;162381.75;;;37.71;37.41
5350;BME280;2697;42.144;24.794;2023-07-13T10:14:18;162452.84;;;37.98;37.00
5350;BME280;2697;42.144;24.794;2023-07-13T10:16:46;162303.97;;;37.41;37.18
5350;BME280;2697;42.144;24.794;2023-07-13T10:19:18;162483.66;;;38.09;38.11
5350;BME280;2697;42.144;24.794;2023-07-13T10:21:54;162448.78;;;37.96;35.82
5350;BME280;2697;42.144;24.794;2023-07-13T10:24:26;162540.03;;;38.31;35.18
5350;BME280;2697;42.144;24.794;2023-07-13T10:27:20;162489.03;;;38.11;35.50
5350;BME280;2697;42.144;24.794;2023-07-13T10:30:50;162487.69;;;38.11;35.79
5350;BME280;2697;42.144;24.794;2023-07-13T10:32:59;162542.69;;;38.32;36.48
5350;BME280;2697;42.144;24.794;2023-07-13T10:35:27;162549.38;;;38.34;35.11
5350;BME280;2697;42.144;24.794;2023-07-13T10:37:58;162411.28;;;37.82;35.90
5350;BME280;2697;42.144;24.794;2023-07-13T10:40:30;162352.22;;;37.59;36.16
5350;BME280;2697;42.144;24.794;2023-07-13T10:43:01;162502.44;;;38.16;35.55
5350;BME280;2697;42.144;24.794;2023-07-13T10:45:32;162620.47;;;38.61;34.68
5350;BME280;2697;42.144;24.794;2023-07-13T10:48:00;162734.53;;;39.04;29.16
5350;BME280;2697;42.144;24.794;2023-07-13T10:50:28;162789.56;;;39.25;28.31
5350;BME280;2697;42.144;24.794;2023-07-13T10:53:02;162794.94;;;39.27;27.62
5350;BME280;2697;42.144;24.794;2023-07-13T11:04:01;163039.25;;;40.20;27.42
5350;BME280;2697;42.144;24.794;2023-07-13T11:08:58;163086.22;;;40.38;29.24
5350;BME280;2697;42.144;24.794;2023-07-13T11:19:37;162639.31;;;38.68;33.66
5350;BME280;2697;42.144;24.794;2023-07-13T11:24:29;162878.19;;;39.59;32.75
5350;BME280;2697;42.144;24.794;2023-07-13T11:26:55;162832.53;;;39.42;33.27
5350;BME280;2697;42.144;24.794;2023-07-13T11:31:57;162692.94;;;38.89;32.64
5350;BME280;2697;42.144;24.794;2023-07-13T11:34:27;162668.81;;;38.80;33.13
5350;BME280;2697;42.144;24.794;2023-07-13T11:36:53;162738.56;;;39.06;32.36
5350;BME280;2697;42.144;24.794;2023-07-13T11:39:27;162828.50;;;39.40;33.26
5350;BME280;2697;42.144;24.794;2023-07-13T11:41:57;162947.97;;;39.85;31.21
5350;BME280;2697;42.144;24.794;2023-07-13T11:44:26;162880.88;;;39.60;31.88
5350;BME280;2697;42.144;24.794;2023-07-13T11:46:57;162836.53;;;39.43;32.75
5350;BME280;2697;42.144;24.794;2023-07-13T11:49:28;162770.78;;;39.18;32.42
5350;BME280;2697;42.144;24.794;2023-07-13T11:51:55;162797.66;;;39.28;32.22
5350;BME280;2697;42.144;24.794;2023-07-13T11:54:46;162811.06;;;39.33;32.16
5350;BME280;2697;42.144;24.794;2023-07-13T11:59:51;162730.53;;;39.03;32.24
5350;BME280;2697;42.144;24.794;2023-07-13T12:02:33;162660.78;;;38.76;33.01
5350;BME280;2697;42.144;24.794;2023-07-13T12:05:00;162727.84;;;39.02;32.98
5350;BME280;2697;42.144;24.794;2023-07-13T12:07:30;162745.25;;;39.09;31.96
5350;BME280;2697;42.144;24.794;2023-07-13T12:10:15;162847.31;;;39.47;31.23
5350;BME280;2697;42.144;24.794;2023-07-13T12:12:53;162970.78;;;39.94;30.91
5350;BME280;2697;42.144;24.794;2023-07-13T12:15:20;162811.06;;;39.33;31.50
5350;BME280;2697;42.144;24.794;2023-07-13T12:17:47;162768.09;;;39.17;31.90
5350;BME280;2697;42.144;24.794;2023-07-13T12:20:20;162800.34;;;39.29;32.02
5350;BME280;2697;42.144;24.794;2023-07-13T12:22:47;162792.25;;;39.26;31.64
5350;BME280;2697;42.144;24.794;2023-07-13T12:25:13;162819.06;;;39.37;31.43
5350;BME280;2697;42.144;24.794;2023-07-13T12:27:40;162879.53;;;39.59;30.75
5350;BME280;2697;42.144;24.794;2023-07-13T12:33:00;162942.56;;;39.83;30.23
5350;BME280;2697;42.144;24.794;2023-07-13T12:35:28;162844.56;;;39.46;30.53
5350;BME280;2697;42.144;24.794;2023-07-13T12:37:56;163054.03;;;40.26;29.67
5350;BME280;2697;42.144;24.794;2023-07-13T12:40:27;163102.41;;;40.44;28.97
5350;BME280;2697;42.144;24.794;2023-07-13T12:42:53;162941.22;;;39.83;29.71
5350;BME280;2697;42.144;24.794;2023-07-13T12:45:21;162929.19;;;39.78;30.06
5350;BME280;2697;42.144;24.794;2023-07-13T12:47:53;162914.41;;;39.73;29.78
5350;BME280;2697;42.144;24.794;2023-07-13T12:50:22;162956.00;;;39.88;30.15
5350;BME280;2697;42.144;24.794;2023-07-13T12:52:53;162999.00;;;40.05;29.62
5350;BME280;2697;42.144;24.794;2023-07-13T12:55:20;163135.94;;;40.57;28.99
5350;BME280;2697;42.144;24.794;2023-07-13T12:57:52;163125.22;;;40.53;28.15
5350;BME280;2697;42.144;24.794;2023-07-13T13:00:31;162980.16;;;39.98;28.47
5350;BME280;2697;42.144;24.794;2023-07-13T13:03:22;163103.75;;;40.44;27.41
5350;BME280;2697;42.144;24.794;2023-07-13T13:05:49;162926.50;;;39.77;27.65
5350;BME280;2697;42.144;24.794;2023-07-13T13:08:16;162943.97;;;39.84;27.48
5350;BME280;2697;42.144;24.794;2023-07-13T13:10:41;162961.38;;;39.90;27.14
5350;BME280;2697;42.144;24.794;2023-07-13T13:13:06;162952.00;;;39.87;27.09
5350;BME280;2697;42.144;24.794;2023-07-13T13:15:33;162990.94;;;40.02;27.23
5350;BME280;2697;42.144;24.794;2023-07-13T13:17:59;163050.00;;;40.24;26.92
5350;BME280;2697;42.144;24.794;2023-07-13T13:20:25;163071.50;;;40.32;26.92
5350;BME280;2697;42.144;24.794;2023-07-13T13:22:53;163084.88;;;40.37;27.13
5350;BME280;2697;42.144;24.794;2023-07-13T13:25:19;162981.50;;;39.98;26.79
5350;BME280;2697;42.144;24.794;2023-07-13T13:27:45;163095.66;;;40.41;26.53
5350;BME280;2697;42.144;24.794;2023-07-13T13:30:15;163122.53;;;40.52;26.35
5350;BME280;2697;42.144;24.794;2023-07-13T13:32:43;163101.06;;;40.43;26.30
5350;BME280;2697;42.144;24.794;2023-07-13T13:35:19;163103.75;;;40.44;26.48
5350;BME280;2697;42.144;24.794;2023-07-13T13:37:47;163216.56;;;40.87;26.97
5350;BME280;2697;42.144;24.794;2023-07-13T13:40:21;163043.31;;;40.22;26.51
5350;BME280;2697;42.144;24.794;2023-07-13T13:42:48;163099.72;;;40.43;26.47
5350;BME280;2697;42.144;24.794;2023-07-13T13:45:14;163058.03;;;40.27;26.66
5350;BME280;2697;42.144;24.794;2023-07-13T13:47:41;163182.94;;;40.74;26.51
5350;BME280;2697;42.144;24.794;2023-07-13T13:50:21;163071.50;;;40.32;27.30